FH16Y GMMN-LPFR
Flight info
| Callsign | FH16Y |
|---|---|
| Flight time | N/A |
| Altitude | 38000 |
| Route | LAKAM UR722 AMSEL DCT GIMAL |
| Aircraft | C750/M-SBDE3FGHRWXY/S |
Departure
| Time | 2026-05-07 17:04 |
|---|---|
| Airport | Mohammed V International Airport (GMMN) |
Arrival
| Time | N/A |
|---|---|
| Airport | Faro - Gago Coutinho International Airport (LPFR) |
| Time | Latitude | Longitude | Altitude | Speed | Heading |
|---|---|---|---|---|---|
| 2026-05-07 17:04 | 33.43697 | -7.65093 | 4612 ft | 252 kts | 300° |
| 2026-05-07 17:04 | 33.44697 | -7.67027 | 4615 ft | 296 kts | 303° |
| 2026-05-07 17:05 | 33.45994 | -7.69146 | 4880 ft | 322 kts | 306° |
| 2026-05-07 17:05 | 33.47309 | -7.71150 | 5155 ft | 284 kts | 310° |
| 2026-05-07 17:05 | 33.48921 | -7.72402 | 5144 ft | 287 kts | 338° |
| 2026-05-07 17:05 | 33.50860 | -7.72827 | 6383 ft | 276 kts | 356° |
| 2026-05-07 17:06 | 33.52804 | -7.72846 | 7356 ft | 287 kts | 359° |
| 2026-05-07 17:06 | 33.54830 | -7.72854 | 8389 ft | 293 kts | 357° |
| 2026-05-07 17:06 | 33.56854 | -7.72888 | 9466 ft | 299 kts | 356° |
| 2026-05-07 17:06 | 33.58974 | -7.72930 | 10269 ft | 311 kts | 356° |
| 2026-05-07 17:07 | 33.61222 | -7.72966 | 10592 ft | 337 kts | 357° |
| 2026-05-07 17:07 | 33.63665 | -7.73001 | 10753 ft | 364 kts | 357° |
| 2026-05-07 17:07 | 33.66295 | -7.73039 | 10794 ft | 392 kts | 357° |
| 2026-05-07 17:07 | 33.69096 | -7.73081 | 10860 ft | 414 kts | 357° |
| 2026-05-07 17:08 | 33.72019 | -7.73123 | 11327 ft | 420 kts | 357° |
| 2026-05-07 17:08 | 33.74944 | -7.73163 | 12007 ft | 422 kts | 357° |
| 2026-05-07 17:08 | 33.77899 | -7.73210 | 12543 ft | 427 kts | 357° |
| 2026-05-07 17:08 | 33.80885 | -7.73258 | 13092 ft | 431 kts | 357° |
| 2026-05-07 17:09 | 33.83900 | -7.73303 | 13648 ft | 435 kts | 357° |
| 2026-05-07 17:09 | 33.86898 | -7.73346 | 14140 ft | 438 kts | 356° |
| 2026-05-07 17:09 | 33.89986 | -7.73393 | 14660 ft | 428 kts | 356° |
| 2026-05-07 17:09 | 33.92913 | -7.73435 | 14942 ft | 431 kts | 356° |
| 2026-05-07 17:10 | 33.95940 | -7.73487 | 14935 ft | 438 kts | 356° |
| 2026-05-07 17:10 | 33.99005 | -7.73536 | 14950 ft | 440 kts | 356° |
| 2026-05-07 17:10 | 34.02082 | -7.73579 | 14949 ft | 442 kts | 356° |
| 2026-05-07 17:10 | 34.05172 | -7.73625 | 15263 ft | 444 kts | 356° |
| 2026-05-07 17:11 | 34.08266 | -7.73673 | 15851 ft | 445 kts | 356° |
| 2026-05-07 17:11 | 34.11313 | -7.73716 | 16974 ft | 426 kts | 355° |
| 2026-05-07 17:11 | 34.14196 | -7.73753 | 18258 ft | 409 kts | 355° |
| 2026-05-07 17:11 | 34.17063 | -7.73807 | 18862 ft | 415 kts | 354° |
| 2026-05-07 17:12 | 34.19953 | -7.73912 | 19484 ft | 417 kts | 352° |
| 2026-05-07 17:12 | 34.22872 | -7.74124 | 20155 ft | 422 kts | 351° |
| 2026-05-07 17:12 | 34.25815 | -7.74332 | 20853 ft | 426 kts | 351° |
| 2026-05-07 17:12 | 34.28838 | -7.74541 | 20966 ft | 446 kts | 352° |
| 2026-05-07 17:13 | 34.32013 | -7.74763 | 20973 ft | 466 kts | 352° |
| 2026-05-07 17:13 | 34.35274 | -7.74983 | 21470 ft | 471 kts | 352° |
| 2026-05-07 17:13 | 34.38550 | -7.75202 | 22062 ft | 474 kts | 352° |
| 2026-05-07 17:13 | 34.41870 | -7.75437 | 22601 ft | 479 kts | 352° |
| 2026-05-07 17:14 | 34.45166 | -7.75671 | 23149 ft | 483 kts | 352° |
| 2026-05-07 17:14 | 34.48578 | -7.75906 | 23694 ft | 485 kts | 352° |
| 2026-05-07 17:14 | 34.51826 | -7.76120 | 24958 ft | 460 kts | 351° |
| 2026-05-07 17:14 | 34.54992 | -7.76335 | 25750 ft | 457 kts | 351° |
| 2026-05-07 17:15 | 34.58190 | -7.76579 | 26253 ft | 462 kts | 351° |
| 2026-05-07 17:15 | 34.61400 | -7.76810 | 26822 ft | 465 kts | 351° |
| 2026-05-07 17:15 | 34.64642 | -7.77025 | 27378 ft | 468 kts | 351° |
| 2026-05-07 17:15 | 34.67907 | -7.77247 | 27924 ft | 471 kts | 351° |
| 2026-05-07 17:16 | 34.71201 | -7.77483 | 28470 ft | 475 kts | 351° |
| 2026-05-07 17:16 | 34.74506 | -7.77719 | 29031 ft | 478 kts | 351° |
| 2026-05-07 17:16 | 34.77843 | -7.77972 | 29569 ft | 481 kts | 350° |
| 2026-05-07 17:16 | 34.81188 | -7.78271 | 30075 ft | 484 kts | 349° |
| 2026-05-07 17:17 | 34.84558 | -7.78572 | 30524 ft | 487 kts | 350° |
| 2026-05-07 17:17 | 34.87956 | -7.78846 | 30991 ft | 489 kts | 350° |
| 2026-05-07 17:17 | 34.91337 | -7.79112 | 31687 ft | 485 kts | 349° |
| 2026-05-07 17:17 | 34.94696 | -7.79395 | 32384 ft | 482 kts | 349° |
| 2026-05-07 17:18 | 34.98033 | -7.79686 | 33058 ft | 480 kts | 349° |
| 2026-05-07 17:18 | 35.01360 | -7.79965 | 33761 ft | 478 kts | 349° |
| 2026-05-07 17:18 | 35.04667 | -7.80235 | 34367 ft | 476 kts | 349° |
| 2026-05-07 17:18 | 35.07968 | -7.80511 | 34977 ft | 474 kts | 348° |
| 2026-05-07 17:19 | 35.11250 | -7.80790 | 35595 ft | 472 kts | 348° |
| 2026-05-07 17:19 | 35.14522 | -7.81066 | 36213 ft | 470 kts | 348° |
| 2026-05-07 17:19 | 35.17768 | -7.81338 | 36834 ft | 468 kts | 348° |
| 2026-05-07 17:19 | 35.21006 | -7.81609 | 37454 ft | 466 kts | 347° |
| 2026-05-07 17:20 | 35.24235 | -7.81883 | 37960 ft | 463 kts | 347° |
| 2026-05-07 17:20 | 35.27379 | -7.82143 | 37941 ft | 454 kts | 347° |
| 2026-05-07 17:20 | 35.33753 | -7.82697 | 37943 ft | 464 kts | 347° |
| 2026-05-07 17:21 | 35.40231 | -7.83233 | 37945 ft | 473 kts | 347° |
| 2026-05-07 17:21 | 35.46936 | -7.83838 | 37958 ft | 494 kts | 347° |
| 2026-05-07 17:22 | 35.53895 | -7.84462 | 37957 ft | 506 kts | 348° |
| 2026-05-07 17:22 | 35.60944 | -7.85091 | 37953 ft | 507 kts | 347° |
| 2026-05-07 17:23 | 35.68013 | -7.85735 | 37951 ft | 508 kts | 347° |